sensor_id;sensor_type;location;lat;lon;timestamp;temperature;humidity
14097;DHT22;7125;48.106;11.544;2022-08-21T00:01:51;16.20;99.90
14097;DHT22;7125;48.106;11.544;2022-08-21T00:04:18;16.20;99.90
14097;DHT22;7125;48.106;11.544;2022-08-21T00:06:45;16.10;99.90
14097;DHT22;7125;48.106;11.544;2022-08-21T00:09:13;16.10;99.90
14097;DHT22;7125;48.106;11.544;2022-08-21T00:11:40;16.10;99.90
14097;DHT22;7125;48.106;11.544;2022-08-21T00:14:08;16.10;99.90
14097;DHT22;7125;48.106;11.544;2022-08-21T00:16:36;16.10;99.90
14097;DHT22;7125;48.106;11.544;2022-08-21T00:19:04;16.00;99.90
14097;DHT22;7125;48.106;11.544;2022-08-21T00:21:32;16.00;99.90
14097;DHT22;7125;48.106;11.544;2022-08-21T00:23:59;16.00;99.90
14097;DHT22;7125;48.106;11.544;2022-08-21T00:26:27;15.90;99.90
14097;DHT22;7125;48.106;11.544;2022-08-21T00:28:55;16.00;99.90
14097;DHT22;7125;48.106;11.544;2022-08-21T00:31:22;15.90;99.90
14097;DHT22;7125;48.106;11.544;2022-08-21T00:33:49;15.90;99.90
14097;DHT22;7125;48.106;11.544;2022-08-21T00:36:15;15.90;99.90
14097;DHT22;7125;48.106;11.544;2022-08-21T00:38:42;15.90;99.90
14097;DHT22;7125;48.106;11.544;2022-08-21T00:41:10;15.90;99.90
14097;DHT22;7125;48.106;11.544;2022-08-21T00:43:39;15.90;99.90
14097;DHT22;7125;48.106;11.544;2022-08-21T00:46:07;15.80;99.90
14097;DHT22;7125;48.106;11.544;2022-08-21T00:48:34;15.80;99.90
14097;DHT22;7125;48.106;11.544;2022-08-21T00:51:04;15.80;99.90
14097;DHT22;7125;48.106;11.544;2022-08-21T00:53:33;15.80;99.90
14097;DHT22;7125;48.106;11.544;2022-08-21T00:56:02;15.80;99.90
14097;DHT22;7125;48.106;11.544;2022-08-21T00:58:29;15.70;99.90
14097;DHT22;7125;48.106;11.544;2022-08-21T01:01:00;15.70;99.90
14097;DHT22;7125;48.106;11.544;2022-08-21T01:03:28;15.70;99.90
14097;DHT22;7125;48.106;11.544;2022-08-21T01:05:54;15.70;99.90
14097;DHT22;7125;48.106;11.544;2022-08-21T01:08:22;15.70;99.90
14097;DHT22;7125;48.106;11.544;2022-08-21T01:10:50;15.70;99.90
14097;DHT22;7125;48.106;11.544;2022-08-21T01:13:24;15.70;99.90
14097;DHT22;7125;48.106;11.544;2022-08-21T01:15:54;15.70;99.90
14097;DHT22;7125;48.106;11.544;2022-08-21T01:18:23;15.70;99.90
14097;DHT22;7125;48.106;11.544;2022-08-21T01:21:07;15.70;99.90
14097;DHT22;7125;48.106;11.544;2022-08-21T01:23:34;15.70;99.90
14097;DHT22;7125;48.106;11.544;2022-08-21T01:26:01;15.70;99.90
14097;DHT22;7125;48.106;11.544;2022-08-21T01:28:33;15.60;99.90
14097;DHT22;7125;48.106;11.544;2022-08-21T01:31:01;15.60;99.90
14097;DHT22;7125;48.106;11.544;2022-08-21T01:33:29;15.60;99.90
14097;DHT22;7125;48.106;11.544;2022-08-21T01:35:56;15.50;99.90
14097;DHT22;7125;48.106;11.544;2022-08-21T01:38:24;15.50;99.90
14097;DHT22;7125;48.106;11.544;2022-08-21T01:40:51;15.50;99.90
14097;DHT22;7125;48.106;11.544;2022-08-21T01:43:18;15.50;99.90
14097;DHT22;7125;48.106;11.544;2022-08-21T01:45:45;15.50;99.90
14097;DHT22;7125;48.106;11.544;2022-08-21T01:48:12;15.40;99.90
14097;DHT22;7125;48.106;11.544;2022-08-21T01:50:38;15.40;99.90
14097;DHT22;7125;48.106;11.544;2022-08-21T01:53:05;15.50;99.90
14097;DHT22;7125;48.106;11.544;2022-08-21T01:55:34;15.40;99.90
14097;DHT22;7125;48.106;11.544;2022-08-21T01:58:00;15.40;99.90
14097;DHT22;7125;48.106;11.544;2022-08-21T02:00:27;15.40;99.90
14097;DHT22;7125;48.106;11.544;2022-08-21T02:02:54;15.40;99.90
14097;DHT22;7125;48.106;11.544;2022-08-21T02:05:21;15.40;99.90
14097;DHT22;7125;48.106;11.544;2022-08-21T02:07:52;15.40;99.90
14097;DHT22;7125;48.106;11.544;2022-08-21T02:10:23;15.30;99.90
14097;DHT22;7125;48.106;11.544;2022-08-21T02:12:51;15.30;99.90
14097;DHT22;7125;48.106;11.544;2022-08-21T02:15:19;15.30;99.90
14097;DHT22;7125;48.106;11.544;2022-08-21T02:17:48;15.30;99.90
14097;DHT22;7125;48.106;11.544;2022-08-21T02:20:19;15.30;99.90
14097;DHT22;7125;48.106;11.544;2022-08-21T02:22:46;15.20;99.90
14097;DHT22;7125;48.106;11.544;2022-08-21T02:25:13;15.20;99.90
14097;DHT22;7125;48.106;11.544;2022-08-21T02:27:42;15.20;99.90
14097;DHT22;7125;48.106;11.544;2022-08-21T02:30:12;15.20;99.90
14097;DHT22;7125;48.106;11.544;2022-08-21T02:32:42;15.20;99.90
14097;DHT22;7125;48.106;11.544;2022-08-21T02:35:09;15.20;99.90
14097;DHT22;7125;48.106;11.544;2022-08-21T02:37:43;15.10;99.90
14097;DHT22;7125;48.106;11.544;2022-08-21T02:40:11;15.10;99.90
14097;DHT22;7125;48.106;11.544;2022-08-21T02:42:38;15.10;99.90
14097;DHT22;7125;48.106;11.544;2022-08-21T02:45:07;15.10;99.90
14097;DHT22;7125;48.106;11.544;2022-08-21T02:47:35;15.10;99.90
14097;DHT22;7125;48.106;11.544;2022-08-21T02:50:03;15.10;99.90
14097;DHT22;7125;48.106;11.544;2022-08-21T02:52:30;15.10;99.90
14097;DHT22;7125;48.106;11.544;2022-08-21T02:54:58;15.10;99.90
14097;DHT22;7125;48.106;11.544;2022-08-21T02:57:25;15.00;99.90
14097;DHT22;7125;48.106;11.544;2022-08-21T02:59:52;15.00;99.90
14097;DHT22;7125;48.106;11.544;2022-08-21T03:02:19;15.00;99.90
14097;DHT22;7125;48.106;11.544;2022-08-21T03:04:48;15.00;99.90
14097;DHT22;7125;48.106;11.544;2022-08-21T03:07:15;15.00;99.90
14097;DHT22;7125;48.106;11.544;2022-08-21T03:09:41;15.00;99.90
14097;DHT22;7125;48.106;11.544;2022-08-21T03:12:08;15.00;99.90
14097;DHT22;7125;48.106;11.544;2022-08-21T03:14:35;15.00;99.90
14097;DHT22;7125;48.106;11.544;2022-08-21T03:17:04;15.00;99.90
14097;DHT22;7125;48.106;11.544;2022-08-21T03:19:31;14.90;99.90
14097;DHT22;7125;48.106;11.544;2022-08-21T03:21:59;14.90;99.90
14097;DHT22;7125;48.106;11.544;2022-08-21T03:24:25;14.90;99.90
14097;DHT22;7125;48.106;11.544;2022-08-21T03:26:52;14.90;99.90
14097;DHT22;7125;48.106;11.544;2022-08-21T03:29:19;14.90;99.90
14097;DHT22;7125;48.106;11.544;2022-08-21T03:31:46;14.80;99.90
14097;DHT22;7125;48.106;11.544;2022-08-21T03:34:13;14.90;99.90
14097;DHT22;7125;48.106;11.544;2022-08-21T03:36:40;14.80;99.90
14097;DHT22;7125;48.106;11.544;2022-08-21T03:39:08;14.80;99.90
14097;DHT22;7125;48.106;11.544;2022-08-21T03:41:35;14.80;99.90
14097;DHT22;7125;48.106;11.544;2022-08-21T03:44:03;14.70;99.90
14097;DHT22;7125;48.106;11.544;2022-08-21T03:46:29;14.70;99.90
14097;DHT22;7125;48.106;11.544;2022-08-21T03:48:57;14.70;99.90
14097;DHT22;7125;48.106;11.544;2022-08-21T03:51:24;14.60;99.90
14097;DHT22;7125;48.106;11.544;2022-08-21T03:53:51;14.60;99.90
14097;DHT22;7125;48.106;11.544;2022-08-21T03:56:19;14.60;99.90
14097;DHT22;7125;48.106;11.544;2022-08-21T03:58:46;14.60;99.90
14097;DHT22;7125;48.106;11.544;2022-08-21T04:01:13;14.60;99.90
14097;DHT22;7125;48.106;11.544;2022-08-21T04:03:39;14.60;99.90
14097;DHT22;7125;48.106;11.544;2022-08-21T04:06:07;14.60;99.90
14097;DHT22;7125;48.106;11.544;2022-08-21T04:08:34;14.50;99.90
14097;DHT22;7125;48.106;11.544;2022-08-21T04:11:03;14.50;99.90
14097;DHT22;7125;48.106;11.544;2022-08-21T04:13:32;14.50;99.90
14097;DHT22;7125;48.106;11.544;2022-08-21T04:15:59;14.50;99.90
14097;DHT22;7125;48.106;11.544;2022-08-21T04:18:26;14.50;99.90
14097;DHT22;7125;48.106;11.544;2022-08-21T04:20:56;14.40;99.90
14097;DHT22;7125;48.106;11.544;2022-08-21T04:23:24;14.50;99.90
14097;DHT22;7125;48.106;11.544;2022-08-21T04:25:52;14.40;99.90
14097;DHT22;7125;48.106;11.544;2022-08-21T04:28:19;14.40;99.90
14097;DHT22;7125;48.106;11.544;2022-08-21T04:30:47;14.40;99.90
14097;DHT22;7125;48.106;11.544;2022-08-21T04:33:16;14.40;99.90
14097;DHT22;7125;48.106;11.544;2022-08-21T04:35:43;14.40;99.90
14097;DHT22;7125;48.106;11.544;2022-08-21T04:38:10;14.40;99.90
14097;DHT22;7125;48.106;11.544;2022-08-21T04:40:37;14.40;99.90
14097;DHT22;7125;48.106;11.544;2022-08-21T04:43:07;14.40;99.90
14097;DHT22;7125;48.106;11.544;2022-08-21T04:45:36;14.40;99.90
14097;DHT22;7125;48.106;11.544;2022-08-21T04:48:08;14.40;99.90
14097;DHT22;7125;48.106;11.544;2022-08-21T04:50:39;14.40;99.90
14097;DHT22;7125;48.106;11.544;2022-08-21T04:53:08;14.40;99.90
14097;DHT22;7125;48.106;11.544;2022-08-21T04:55:36;14.40;99.90
14097;DHT22;7125;48.106;11.544;2022-08-21T04:58:04;14.40;99.90
14097;DHT22;7125;48.106;11.544;2022-08-21T05:00:31;14.40;99.90
14097;DHT22;7125;48.106;11.544;2022-08-21T05:03:00;14.40;99.90
14097;DHT22;7125;48.106;11.544;2022-08-21T05:05:29;14.40;99.90
14097;DHT22;7125;48.106;11.544;2022-08-21T05:07:57;14.40;99.90
14097;DHT22;7125;48.106;11.544;2022-08-21T05:10:26;14.40;99.90
14097;DHT22;7125;48.106;11.544;2022-08-21T05:12:54;14.50;99.90
14097;DHT22;7125;48.106;11.544;2022-08-21T05:15:21;14.50;99.90
14097;DHT22;7125;48.106;11.544;2022-08-21T05:17:48;14.50;99.90
14097;DHT22;7125;48.106;11.544;2022-08-21T05:20:16;14.50;99.90
14097;DHT22;7125;48.106;11.544;2022-08-21T05:22:44;14.50;99.90
14097;DHT22;7125;48.106;11.544;2022-08-21T05:25:11;14.50;99.90
14097;DHT22;7125;48.106;11.544;2022-08-21T05:27:38;14.50;99.90
14097;DHT22;7125;48.106;11.544;2022-08-21T05:30:08;14.60;99.90
14097;DHT22;7125;48.106;11.544;2022-08-21T05:32:36;14.60;99.90
14097;DHT22;7125;48.106;11.544;2022-08-21T05:35:04;14.60;99.90
14097;DHT22;7125;48.106;11.544;2022-08-21T05:37:32;14.70;99.90
14097;DHT22;7125;48.106;11.544;2022-08-21T05:40:00;14.60;99.90
14097;DHT22;7125;48.106;11.544;2022-08-21T05:42:27;14.60;99.90
14097;DHT22;7125;48.106;11.544;2022-08-21T05:44:54;14.70;99.90
14097;DHT22;7125;48.106;11.544;2022-08-21T05:47:21;14.70;99.90
14097;DHT22;7125;48.106;11.544;2022-08-21T05:49:48;14.70;99.90
14097;DHT22;7125;48.106;11.544;2022-08-21T05:52:19;14.80;99.90
14097;DHT22;7125;48.106;11.544;2022-08-21T05:54:46;14.80;99.90
14097;DHT22;7125;48.106;11.544;2022-08-21T05:57:14;14.80;99.90
14097;DHT22;7125;48.106;11.544;2022-08-21T05:59:41;14.90;99.90
14097;DHT22;7125;48.106;11.544;2022-08-21T06:02:08;14.90;99.90
14097;DHT22;7125;48.106;11.544;2022-08-21T06:04:35;14.90;99.90
14097;DHT22;7125;48.106;11.544;2022-08-21T06:07:03;14.90;99.90
14097;DHT22;7125;48.106;11.544;2022-08-21T06:09:30;15.00;99.90
14097;DHT22;7125;48.106;11.544;2022-08-21T06:11:56;15.00;99.90
14097;DHT22;7125;48.106;11.544;2022-08-21T06:14:25;15.10;99.90
14097;DHT22;7125;48.106;11.544;2022-08-21T06:16:51;15.10;99.90
14097;DHT22;7125;48.106;11.544;2022-08-21T06:19:18;15.20;99.90
14097;DHT22;7125;48.106;11.544;2022-08-21T06:21:45;15.20;99.90
14097;DHT22;7125;48.106;11.544;2022-08-21T06:24:12;15.30;99.90
14097;DHT22;7125;48.106;11.544;2022-08-21T06:26:39;15.30;99.90
14097;DHT22;7125;48.106;11.544;2022-08-21T06:29:06;15.40;99.90
14097;DHT22;7125;48.106;11.544;2022-08-21T06:31:39;15.40;99.90
14097;DHT22;7125;48.106;11.544;2022-08-21T06:34:06;15.50;99.90
14097;DHT22;7125;48.106;11.544;2022-08-21T06:36:33;15.50;99.90
14097;DHT22;7125;48.106;11.544;2022-08-21T06:38:59;15.60;99.90
14097;DHT22;7125;48.106;11.544;2022-08-21T06:41:26;15.60;99.90
14097;DHT22;7125;48.106;11.544;2022-08-21T06:43:54;15.70;99.90
14097;DHT22;7125;48.106;11.544;2022-08-21T06:46:21;15.70;99.90
14097;DHT22;7125;48.106;11.544;2022-08-21T06:48:49;15.80;99.90
14097;DHT22;7125;48.106;11.544;2022-08-21T06:51:16;15.80;99.90
14097;DHT22;7125;48.106;11.544;2022-08-21T06:53:45;15.90;99.90
14097;DHT22;7125;48.106;11.544;2022-08-21T06:56:12;16.00;99.90
14097;DHT22;7125;48.106;11.544;2022-08-21T06:58:39;16.00;99.90
14097;DHT22;7125;48.106;11.544;2022-08-21T07:01:06;16.10;99.90
14097;DHT22;7125;48.106;11.544;2022-08-21T07:03:34;16.20;99.90
14097;DHT22;7125;48.106;11.544;2022-08-21T07:06:03;16.30;99.90
14097;DHT22;7125;48.106;11.544;2022-08-21T07:08:30;16.30;99.90
14097;DHT22;7125;48.106;11.544;2022-08-21T07:10:59;16.40;99.90
14097;DHT22;7125;48.106;11.544;2022-08-21T07:13:27;16.50;99.90
14097;DHT22;7125;48.106;11.544;2022-08-21T07:15:54;16.50;99.90
14097;DHT22;7125;48.106;11.544;2022-08-21T07:18:21;16.60;99.90
14097;DHT22;7125;48.106;11.544;2022-08-21T07:20:48;16.70;99.90
14097;DHT22;7125;48.106;11.544;2022-08-21T07:23:21;16.70;99.90
14097;DHT22;7125;48.106;11.544;2022-08-21T07:25:49;16.80;99.90
14097;DHT22;7125;48.106;11.544;2022-08-21T07:28:16;16.90;99.90
14097;DHT22;7125;48.106;11.544;2022-08-21T07:30:43;16.90;99.90
14097;DHT22;7125;48.106;11.544;2022-08-21T07:33:10;16.90;99.90
14097;DHT22;7125;48.106;11.544;2022-08-21T07:35:37;17.00;99.90
14097;DHT22;7125;48.106;11.544;2022-08-21T07:38:04;17.00;99.90
14097;DHT22;7125;48.106;11.544;2022-08-21T07:40:32;17.00;99.90
14097;DHT22;7125;48.106;11.544;2022-08-21T07:42:59;17.00;99.90
14097;DHT22;7125;48.106;11.544;2022-08-21T07:45:26;17.00;99.90
14097;DHT22;7125;48.106;11.544;2022-08-21T07:47:53;17.00;99.90
14097;DHT22;7125;48.106;11.544;2022-08-21T07:50:20;17.10;99.90
14097;DHT22;7125;48.106;11.544;2022-08-21T07:52:47;17.10;99.90
14097;DHT22;7125;48.106;11.544;2022-08-21T07:55:16;17.10;99.90
14097;DHT22;7125;48.106;11.544;2022-08-21T07:57:45;17.20;99.90
14097;DHT22;7125;48.106;11.544;2022-08-21T08:00:14;17.20;99.90
14097;DHT22;7125;48.106;11.544;2022-08-21T08:02:44;17.20;99.90
14097;DHT22;7125;48.106;11.544;2022-08-21T08:05:12;17.30;99.90
14097;DHT22;7125;48.106;11.544;2022-08-21T08:07:39;17.30;99.90
14097;DHT22;7125;48.106;11.544;2022-08-21T08:10:08;17.40;99.90
14097;DHT22;7125;48.106;11.544;2022-08-21T08:12:35;17.40;99.90
14097;DHT22;7125;48.106;11.544;2022-08-21T08:15:06;17.50;99.90
14097;DHT22;7125;48.106;11.544;2022-08-21T08:17:33;17.60;99.90
14097;DHT22;7125;48.106;11.544;2022-08-21T08:20:01;17.60;99.90
14097;DHT22;7125;48.106;11.544;2022-08-21T08:22:28;17.70;99.90
14097;DHT22;7125;48.106;11.544;2022-08-21T08:24:55;17.80;99.90
14097;DHT22;7125;48.106;11.544;2022-08-21T08:27:22;17.90;99.90
14097;DHT22;7125;48.106;11.544;2022-08-21T08:29:49;17.90;99.90
14097;DHT22;7125;48.106;11.544;2022-08-21T08:32:18;17.90;99.90
14097;DHT22;7125;48.106;11.544;2022-08-21T08:34:45;18.00;99.90
14097;DHT22;7125;48.106;11.544;2022-08-21T08:37:14;18.00;99.90
14097;DHT22;7125;48.106;11.544;2022-08-21T08:39:41;18.10;99.90
14097;DHT22;7125;48.106;11.544;2022-08-21T08:42:11;18.10;99.90
14097;DHT22;7125;48.106;11.544;2022-08-21T08:44:39;18.20;99.90
14097;DHT22;7125;48.106;11.544;2022-08-21T08:47:08;18.20;99.90
14097;DHT22;7125;48.106;11.544;2022-08-21T08:49:42;18.10;99.90
14097;DHT22;7125;48.106;11.544;2022-08-21T08:52:19;18.10;99.90
14097;DHT22;7125;48.106;11.544;2022-08-21T08:54:51;18.10;99.90
14097;DHT22;7125;48.106;11.544;2022-08-21T08:57:23;18.10;99.90
14097;DHT22;7125;48.106;11.544;2022-08-21T08:59:52;18.20;99.90
14097;DHT22;7125;48.106;11.544;2022-08-21T09:02:19;18.20;99.90
14097;DHT22;7125;48.106;11.544;2022-08-21T09:04:48;18.20;99.90
14097;DHT22;7125;48.106;11.544;2022-08-21T09:07:22;18.30;99.90
14097;DHT22;7125;48.106;11.544;2022-08-21T09:10:03;18.30;99.90
14097;DHT22;7125;48.106;11.544;2022-08-21T09:12:38;18.30;99.90
14097;DHT22;7125;48.106;11.544;2022-08-21T09:15:12;18.40;99.90
14097;DHT22;7125;48.106;11.544;2022-08-21T09:17:58;18.50;99.90
14097;DHT22;7125;48.106;11.544;2022-08-21T09:20:38;18.60;99.90
14097;DHT22;7125;48.106;11.544;2022-08-21T09:23:18;18.70;99.90
14097;DHT22;7125;48.106;11.544;2022-08-21T09:25:54;18.70;99.90
14097;DHT22;7125;48.106;11.544;2022-08-21T09:28:22;18.80;99.90
14097;DHT22;7125;48.106;11.544;2022-08-21T09:30:50;18.80;99.90
14097;DHT22;7125;48.106;11.544;2022-08-21T09:33:20;18.80;99.90
14097;DHT22;7125;48.106;11.544;2022-08-21T09:35:51;18.80;99.90
14097;DHT22;7125;48.106;11.544;2022-08-21T09:38:28;18.80;99.90
14097;DHT22;7125;48.106;11.544;2022-08-21T09:41:00;18.80;99.90
14097;DHT22;7125;48.106;11.544;2022-08-21T09:43:27;18.90;99.90
14097;DHT22;7125;48.106;11.544;2022-08-21T09:46:09;19.00;99.90
14097;DHT22;7125;48.106;11.544;2022-08-21T09:48:42;19.10;99.90
14097;DHT22;7125;48.106;11.544;2022-08-21T09:51:13;19.30;99.90
14097;DHT22;7125;48.106;11.544;2022-08-21T09:53:46;19.50;99.90
14097;DHT22;7125;48.106;11.544;2022-08-21T09:56:21;19.60;99.90
14097;DHT22;7125;48.106;11.544;2022-08-21T09:59:15;19.80;99.90
14097;DHT22;7125;48.106;11.544;2022-08-21T10:01:44;20.00;99.90
14097;DHT22;7125;48.106;11.544;2022-08-21T10:04:12;20.10;99.90
14097;DHT22;7125;48.106;11.544;2022-08-21T10:06:41;20.20;99.90
14097;DHT22;7125;48.106;11.544;2022-08-21T10:09:10;20.20;99.90
14097;DHT22;7125;48.106;11.544;2022-08-21T10:11:38;20.10;99.90
14097;DHT22;7125;48.106;11.544;2022-08-21T10:14:13;20.00;99.90
14097;DHT22;7125;48.106;11.544;2022-08-21T10:16:49;20.00;99.90
14097;DHT22;7125;48.106;11.544;2022-08-21T10:19:26;19.90;99.90
14097;DHT22;7125;48.106;11.544;2022-08-21T10:22:05;19.90;99.90
14097;DHT22;7125;48.106;11.544;2022-08-21T10:24:41;19.90;99.90
14097;DHT22;7125;48.106;11.544;2022-08-21T10:27:18;20.10;99.90
14097;DHT22;7125;48.106;11.544;2022-08-21T10:29:55;20.30;99.90
14097;DHT22;7125;48.106;11.544;2022-08-21T10:32:35;20.50;99.90
14097;DHT22;7125;48.106;11.544;2022-08-21T10:35:10;20.50;99.90
14097;DHT22;7125;48.106;11.544;2022-08-21T10:37:48;20.40;99.90
14097;DHT22;7125;48.106;11.544;2022-08-21T10:40:24;20.30;99.90
14097;DHT22;7125;48.106;11.544;2022-08-21T10:43:02;20.40;99.90
14097;DHT22;7125;48.106;11.544;2022-08-21T10:45:39;20.40;99.90
14097;DHT22;7125;48.106;11.544;2022-08-21T10:48:14;20.60;99.90
14097;DHT22;7125;48.106;11.544;2022-08-21T10:50:47;20.60;99.90
14097;DHT22;7125;48.106;11.544;2022-08-21T10:53:28;20.60;99.90
14097;DHT22;7125;48.106;11.544;2022-08-21T10:55:59;20.60;99.90
14097;DHT22;7125;48.106;11.544;2022-08-21T10:58:29;20.50;99.90
14097;DHT22;7125;48.106;11.544;2022-08-21T11:01:00;20.50;99.90
14097;DHT22;7125;48.106;11.544;2022-08-21T11:03:33;20.60;99.90
14097;DHT22;7125;48.106;11.544;2022-08-21T11:06:08;20.70;99.90
14097;DHT22;7125;48.106;11.544;2022-08-21T11:08:40;20.80;99.90
14097;DHT22;7125;48.106;11.544;2022-08-21T11:11:18;20.80;99.90
14097;DHT22;7125;48.106;11.544;2022-08-21T11:13:47;20.70;99.90
14097;DHT22;7125;48.106;11.544;2022-08-21T11:16:20;20.60;99.90
14097;DHT22;7125;48.106;11.544;2022-08-21T11:18:53;20.60;99.90
14097;DHT22;7125;48.106;11.544;2022-08-21T11:21:29;20.50;99.90
14097;DHT22;7125;48.106;11.544;2022-08-21T11:24:03;20.50;99.90
14097;DHT22;7125;48.106;11.544;2022-08-21T11:26:34;20.40;99.90
14097;DHT22;7125;48.106;11.544;2022-08-21T11:29:07;20.40;99.90
14097;DHT22;7125;48.106;11.544;2022-08-21T11:31:45;20.40;99.90
14097;DHT22;7125;48.106;11.544;2022-08-21T11:34:23;20.60;99.90
14097;DHT22;7125;48.106;11.544;2022-08-21T11:37:00;20.90;99.90
14097;DHT22;7125;48.106;11.544;2022-08-21T11:39:38;21.30;99.90
14097;DHT22;7125;48.106;11.544;2022-08-21T11:42:15;21.70;99.90
14097;DHT22;7125;48.106;11.544;2022-08-21T11:44:51;21.90;99.90
14097;DHT22;7125;48.106;11.544;2022-08-21T11:47:32;22.00;99.90
14097;DHT22;7125;48.106;11.544;2022-08-21T11:50:09;21.90;99.90
14097;DHT22;7125;48.106;11.544;2022-08-21T11:52:42;21.70;99.90
14097;DHT22;7125;48.106;11.544;2022-08-21T11:55:14;21.50;99.90
14097;DHT22;7125;48.106;11.544;2022-08-21T11:57:49;21.40;99.90
14097;DHT22;7125;48.106;11.544;2022-08-21T12:00:20;21.20;99.90
14097;DHT22;7125;48.106;11.544;2022-08-21T12:02:51;21.00;99.90
14097;DHT22;7125;48.106;11.544;2022-08-21T12:05:29;20.90;99.90
14097;DHT22;7125;48.106;11.544;2022-08-21T12:08:04;20.80;99.90
14097;DHT22;7125;48.106;11.544;2022-08-21T12:10:36;20.70;99.90
14097;DHT22;7125;48.106;11.544;2022-08-21T12:13:10;20.60;99.90
14097;DHT22;7125;48.106;11.544;2022-08-21T12:15:39;20.50;99.90
14097;DHT22;7125;48.106;11.544;2022-08-21T12:18:21;20.50;99.90
14097;DHT22;7125;48.106;11.544;2022-08-21T12:20:59;20.40;99.90
14097;DHT22;7125;48.106;11.544;2022-08-21T12:23:29;20.40;99.90
14097;DHT22;7125;48.106;11.544;2022-08-21T12:26:03;20.30;99.90
14097;DHT22;7125;48.106;11.544;2022-08-21T12:28:36;20.50;99.90
14097;DHT22;7125;48.106;11.544;2022-08-21T12:31:03;20.80;99.90
14097;DHT22;7125;48.106;11.544;2022-08-21T12:33:32;21.20;99.90
14097;DHT22;7125;48.106;11.544;2022-08-21T12:36:06;21.60;99.90
14097;DHT22;7125;48.106;11.544;2022-08-21T12:38:43;22.10;99.90
14097;DHT22;7125;48.106;11.544;2022-08-21T12:41:18;22.30;99.90
14097;DHT22;7125;48.106;11.544;2022-08-21T12:43:52;22.30;99.90
14097;DHT22;7125;48.106;11.544;2022-08-21T12:46:26;22.20;99.90
14097;DHT22;7125;48.106;11.544;2022-08-21T12:48:56;22.20;99.90
14097;DHT22;7125;48.106;11.544;2022-08-21T12:51:28;22.30;99.90
14097;DHT22;7125;48.106;11.544;2022-08-21T12:53:56;22.50;99.20
14097;DHT22;7125;48.106;11.544;2022-08-21T12:56:27;22.90;99.90
14097;DHT22;7125;48.106;11.544;2022-08-21T12:58:56;23.30;99.90
14097;DHT22;7125;48.106;11.544;2022-08-21T13:01:29;23.60;99.40
14097;DHT22;7125;48.106;11.544;2022-08-21T13:04:02;23.70;99.20
14097;DHT22;7125;48.106;11.544;2022-08-21T13:06:38;23.70;99.70
14097;DHT22;7125;48.106;11.544;2022-08-21T13:09:08;23.70;98.80
14097;DHT22;7125;48.106;11.544;2022-08-21T13:11:39;23.80;98.40
14097;DHT22;7125;48.106;11.544;2022-08-21T13:14:13;23.90;99.30
14097;DHT22;7125;48.106;11.544;2022-08-21T13:16:41;24.20;98.80
14097;DHT22;7125;48.106;11.544;2022-08-21T13:19:11;24.50;98.20
14097;DHT22;7125;48.106;11.544;2022-08-21T13:21:40;24.70;95.20
14097;DHT22;7125;48.106;11.544;2022-08-21T13:24:15;24.80;96.10
14097;DHT22;7125;48.106;11.544;2022-08-21T13:26:45;24.90;95.70
14097;DHT22;7125;48.106;11.544;2022-08-21T13:29:15;25.00;93.90
14097;DHT22;7125;48.106;11.544;2022-08-21T13:31:47;25.00;96.00
14097;DHT22;7125;48.106;11.544;2022-08-21T13:34:14;25.30;95.20
14097;DHT22;7125;48.106;11.544;2022-08-21T13:36:43;25.40;92.20
14097;DHT22;7125;48.106;11.544;2022-08-21T13:39:14;25.40;92.30
14097;DHT22;7125;48.106;11.544;2022-08-21T13:41:46;25.40;92.70
14097;DHT22;7125;48.106;11.544;2022-08-21T13:44:16;25.40;92.10
14097;DHT22;7125;48.106;11.544;2022-08-21T13:46:44;25.50;92.90
14097;DHT22;7125;48.106;11.544;2022-08-21T13:49:15;25.50;91.20
14097;DHT22;7125;48.106;11.544;2022-08-21T13:51:43;25.40;89.60
14097;DHT22;7125;48.106;11.544;2022-08-21T13:54:28;25.50;92.70
14097;DHT22;7125;48.106;11.544;2022-08-21T13:56:57;25.50;93.40
14097;DHT22;7125;48.106;11.544;2022-08-21T13:59:26;25.30;90.70
14097;DHT22;7125;48.106;11.544;2022-08-21T14:01:56;25.00;91.30
14097;DHT22;7125;48.106;11.544;2022-08-21T14:04:31;24.50;90.00
14097;DHT22;7125;48.106;11.544;2022-08-21T14:07:00;24.20;91.00
14097;DHT22;7125;48.106;11.544;2022-08-21T14:09:31;23.80;91.30
14097;DHT22;7125;48.106;11.544;2022-08-21T14:12:13;23.60;92.10
14097;DHT22;7125;48.106;11.544;2022-08-21T14:14:40;23.50;93.80
14097;DHT22;7125;48.106;11.544;2022-08-21T14:17:10;23.60;92.60
14097;DHT22;7125;48.106;11.544;2022-08-21T14:19:41;23.80;92.00
14097;DHT22;7125;48.106;11.544;2022-08-21T14:22:30;24.10;92.00
14097;DHT22;7125;48.106;11.544;2022-08-21T14:25:04;24.50;91.50
14097;DHT22;7125;48.106;11.544;2022-08-21T14:27:33;24.80;92.00
14097;DHT22;7125;48.106;11.544;2022-08-21T14:30:08;24.90;89.60
14097;DHT22;7125;48.106;11.544;2022-08-21T14:32:37;25.00;90.80
14097;DHT22;7125;48.106;11.544;2022-08-21T14:35:05;25.30;90.70
14097;DHT22;7125;48.106;11.544;2022-08-21T14:37:33;25.40;89.50
14097;DHT22;7125;48.106;11.544;2022-08-21T14:40:00;25.60;90.80
14097;DHT22;7125;48.106;11.544;2022-08-21T14:42:28;25.80;89.10
14097;DHT22;7125;48.106;11.544;2022-08-21T14:45:00;25.90;88.70
14097;DHT22;7125;48.106;11.544;2022-08-21T14:47:27;25.90;88.50
14097;DHT22;7125;48.106;11.544;2022-08-21T14:49:54;26.10;88.90
14097;DHT22;7125;48.106;11.544;2022-08-21T14:52:21;26.30;86.00
14097;DHT22;7125;48.106;11.544;2022-08-21T14:54:49;26.30;86.90
14097;DHT22;7125;48.106;11.544;2022-08-21T14:57:16;26.10;85.80
14097;DHT22;7125;48.106;11.544;2022-08-21T14:59:44;25.60;86.80
14097;DHT22;7125;48.106;11.544;2022-08-21T15:02:12;25.20;85.50
14097;DHT22;7125;48.106;11.544;2022-08-21T15:04:39;24.80;88.90
14097;DHT22;7125;48.106;11.544;2022-08-21T15:07:07;24.50;88.90
14097;DHT22;7125;48.106;11.544;2022-08-21T15:09:34;24.60;91.20
14097;DHT22;7125;48.106;11.544;2022-08-21T15:12:02;24.80;89.80
14097;DHT22;7125;48.106;11.544;2022-08-21T15:14:31;25.00;90.10
14097;DHT22;7125;48.106;11.544;2022-08-21T15:16:58;25.30;85.60
14097;DHT22;7125;48.106;11.544;2022-08-21T15:19:27;25.60;90.20
14097;DHT22;7125;48.106;11.544;2022-08-21T15:21:55;25.80;89.30
14097;DHT22;7125;48.106;11.544;2022-08-21T15:24:22;25.90;86.20
14097;DHT22;7125;48.106;11.544;2022-08-21T15:26:49;26.20;86.50
14097;DHT22;7125;48.106;11.544;2022-08-21T15:29:16;26.30;84.70
14097;DHT22;7125;48.106;11.544;2022-08-21T15:31:51;26.40;80.60
14097;DHT22;7125;48.106;11.544;2022-08-21T15:34:19;26.40;79.10
14097;DHT22;7125;48.106;11.544;2022-08-21T15:36:48;26.30;78.50
14097;DHT22;7125;48.106;11.544;2022-08-21T15:39:15;26.30;80.70
14097;DHT22;7125;48.106;11.544;2022-08-21T15:41:42;26.30;80.70
14097;DHT22;7125;48.106;11.544;2022-08-21T15:44:09;26.40;79.70
14097;DHT22;7125;48.106;11.544;2022-08-21T15:46:37;26.50;78.40